createdAt,value
2019-03-31T00:01:12.142Z,98474.20
2019-03-31T00:04:02.066Z,98471.47
2019-03-31T00:06:51.732Z,98480.58
2019-03-31T00:09:42.012Z,98469.96
2019-03-31T00:12:13.068Z,98474.20
2019-03-31T00:15:03.516Z,98474.33
2019-03-31T00:17:34.519Z,98479.58
2019-03-31T00:20:06.047Z,98477.71
2019-03-31T00:22:55.842Z,98475.93
2019-03-31T00:25:27.325Z,98476.58
2019-03-31T00:27:58.649Z,98476.66
2019-03-31T00:30:48.535Z,98474.76
2019-03-31T00:33:19.636Z,98470.41
2019-03-31T00:35:50.789Z,98473.06
2019-03-31T00:38:22.612Z,98468.11
2019-03-31T00:40:55.097Z,98471.48
2019-03-31T00:43:26.826Z,98470.17
2019-03-31T00:45:58.001Z,98469.66
2019-03-31T00:48:31.375Z,98471.97
2019-03-31T00:51:03.378Z,98468.15
2019-03-31T00:53:53.635Z,98466.65
2019-03-31T00:56:43.716Z,98465.11
2019-03-31T00:59:15.344Z,98473.34
2019-03-31T01:02:11.158Z,98464.30
2019-03-31T01:05:01.313Z,98464.58
2019-03-31T01:07:51.357Z,98358.24
2019-03-31T01:10:22.773Z,98458.68
2019-03-31T01:12:54.223Z,98462.30
2019-03-31T01:15:45.527Z,98463.15
2019-03-31T01:18:16.900Z,98458.16
2019-03-31T01:20:49.005Z,98454.58
2019-03-31T01:23:39.070Z,98454.05
2019-03-31T01:26:10.295Z,98457.20
2019-03-31T01:28:41.864Z,98452.28
2019-03-31T01:31:13.414Z,98451.13
2019-03-31T01:34:03.290Z,98459.81
2019-03-31T01:36:34.443Z,98460.04
2019-03-31T01:39:07.868Z,98455.93
2019-03-31T01:41:57.624Z,98459.19
2019-03-31T01:44:47.300Z,98456.66
2019-03-31T01:47:37.226Z,98454.41
2019-03-31T01:50:11.684Z,98450.10
2019-03-31T01:52:43.195Z,98451.12
2019-03-31T01:55:14.224Z,98448.70
2019-03-31T01:58:33.463Z,98455.53
2019-03-31T02:00:47.891Z,98450.08
2019-03-31T02:03:38.126Z,98452.49
2019-03-31T02:06:09.209Z,98455.64
2019-03-31T02:08:59.199Z,98453.91
2019-03-31T02:11:30.327Z,98314.17
2019-03-31T02:14:19.967Z,98452.72
2019-03-31T02:16:51.083Z,98455.83
2019-03-31T02:19:40.758Z,98456.94
2019-03-31T02:22:11.809Z,98462.64
2019-03-31T02:24:43.949Z,98459.98
2019-03-31T02:27:33.924Z,98454.08
2019-03-31T02:30:05.237Z,98454.01
2019-03-31T02:32:37.211Z,98452.78
2019-03-31T02:35:08.780Z,98451.81
2019-03-31T02:37:40.584Z,98450.62
2019-03-31T02:40:30.410Z,98448.03
2019-03-31T02:43:20.397Z,98452.13
2019-03-31T02:45:51.410Z,98448.45
2019-03-31T02:48:42.125Z,98448.97
2019-03-31T02:51:34.154Z,98440.38
2019-03-31T02:54:23.999Z,98439.59
2019-03-31T02:57:14.039Z,98441.55
2019-03-31T03:00:03.784Z,98443.18
2019-03-31T03:02:54.110Z,98440.66
2019-03-31T03:05:48.362Z,98437.38
2019-03-31T03:08:24.237Z,98441.72
2019-03-31T03:11:18.119Z,98443.63
2019-03-31T03:13:52.670Z,98437.52
2019-03-31T03:16:42.865Z,98440.91
2019-03-31T03:19:32.882Z,98437.63
2019-03-31T03:22:43.123Z,98442.13
2019-03-31T03:25:24.478Z,98441.52
2019-03-31T03:27:56.603Z,98440.84
2019-03-31T03:33:23.572Z,98445.68
2019-03-31T03:36:14.579Z,98445.23
2019-03-31T03:39:24.890Z,98444.72
2019-03-31T03:42:14.934Z,98437.94
2019-03-31T03:45:04.631Z,98439.17
2019-03-31T03:47:55.315Z,98437.77
2019-03-31T03:50:26.472Z,98434.56
2019-03-31T03:52:57.777Z,98440.26
2019-03-31T03:55:29.716Z,98441.11
2019-03-31T03:58:01.739Z,98434.08
2019-03-31T04:00:33.250Z,98436.81
2019-03-31T04:03:04.728Z,98436.73
2019-03-31T04:05:35.715Z,98433.39
2019-03-31T04:08:06.664Z,98437.42
2019-03-31T04:10:55.581Z,98432.44
2019-03-31T04:13:26.859Z,98431.31
2019-03-31T04:16:16.894Z,98431.00
2019-03-31T04:19:06.598Z,98432.27
2019-03-31T04:21:56.282Z,98434.09
2019-03-31T04:24:37.973Z,98429.11
2019-03-31T04:27:09.494Z,98429.21
2019-03-31T04:29:40.532Z,98428.11
2019-03-31T04:32:30.577Z,98424.73
2019-03-31T04:35:01.735Z,98426.50
2019-03-31T04:37:32.744Z,98421.44
2019-03-31T04:40:23.099Z,98430.00
2019-03-31T04:42:54.094Z,98428.20
2019-03-31T04:45:47.556Z,98428.27
2019-03-31T04:48:37.618Z,98426.13
2019-03-31T04:51:09.249Z,98427.17
2019-03-31T04:53:53.451Z,98426.70
2019-03-31T04:56:32.462Z,98430.58
2019-03-31T04:59:22.387Z,98428.41
2019-03-31T05:02:12.226Z,98430.30
2019-03-31T05:05:01.945Z,98421.77
2019-03-31T05:07:33.103Z,98424.02
2019-03-31T05:10:23.816Z,98422.72
2019-03-31T05:13:13.494Z,98431.81
2019-03-31T05:18:53.401Z,98433.30
2019-03-31T05:21:24.867Z,98430.36
2019-03-31T05:23:57.261Z,98429.98
2019-03-31T05:29:20.989Z,98435.88
2019-03-31T05:32:11.154Z,98436.80
2019-03-31T05:35:00.840Z,98438.94
2019-03-31T05:37:51.265Z,98441.38
2019-03-31T05:40:37.784Z,98434.02
2019-03-31T05:43:10.245Z,98445.17
2019-03-31T05:45:44.151Z,98448.42
2019-03-31T05:48:16.008Z,98447.41
2019-03-31T05:51:06.063Z,98444.34
2019-03-31T05:54:15.270Z,98442.64
2019-03-31T05:56:48.301Z,98439.86
2019-03-31T05:59:20.363Z,98444.63
2019-03-31T06:01:51.749Z,98449.14
2019-03-31T06:04:32.966Z,98442.34
2019-03-31T06:07:14.975Z,98443.36
2019-03-31T06:09:45.998Z,98443.43
2019-03-31T06:12:36.182Z,98447.42
2019-03-31T06:15:25.980Z,98448.72
2019-03-31T06:18:16.618Z,98447.48
2019-03-31T06:21:06.258Z,98452.45
2019-03-31T06:23:37.494Z,98456.88
2019-03-31T06:26:19.658Z,98454.30
2019-03-31T06:28:51.059Z,98455.20
2019-03-31T06:31:40.709Z,98452.79
2019-03-31T06:34:11.897Z,98450.45
2019-03-31T06:37:01.895Z,98454.39
2019-03-31T06:39:34.375Z,98452.63
2019-03-31T06:42:24.559Z,98459.34
2019-03-31T06:45:14.524Z,98455.73
2019-03-31T06:48:04.247Z,98457.26
2019-03-31T06:50:35.264Z,98462.81
2019-03-31T06:53:24.961Z,98458.64
2019-03-31T06:55:55.994Z,98461.13
2019-03-31T06:58:45.947Z,98460.25
2019-03-31T07:01:16.929Z,98463.72
2019-03-31T07:03:47.994Z,98469.23
2019-03-31T07:06:19.095Z,98464.08
2019-03-31T07:09:08.769Z,98464.95
2019-03-31T07:11:58.468Z,98470.78
2019-03-31T07:14:29.545Z,98345.59
2019-03-31T07:17:00.915Z,98470.95
2019-03-31T07:19:31.976Z,98478.73
2019-03-31T07:22:02.993Z,98475.96
2019-03-31T07:24:52.928Z,98478.02
2019-03-31T07:27:23.959Z,98477.34
2019-03-31T07:30:33.981Z,98486.10
2019-03-31T07:33:24.073Z,98479.60
2019-03-31T07:35:55.100Z,98479.88
2019-03-31T07:38:45.066Z,98476.72
2019-03-31T07:41:16.154Z,98480.69
2019-03-31T07:44:06.171Z,98482.19
2019-03-31T07:46:55.950Z,98478.20
2019-03-31T07:50:03.140Z,98400.83
2019-03-31T07:52:40.530Z,98493.81
2019-03-31T08:01:01.919Z,98503.80
2019-03-31T08:03:43.865Z,98503.81
2019-03-31T08:06:25.807Z,98393.30
2019-03-31T08:08:56.940Z,98501.06
2019-03-31T08:11:28.061Z,98504.42
2019-03-31T08:14:18.259Z,98506.05
2019-03-31T08:17:08.069Z,98513.27
2019-03-31T08:19:39.516Z,98513.39
2019-03-31T08:22:29.383Z,98506.70
2019-03-31T08:25:19.591Z,98509.52
2019-03-31T08:28:01.115Z,98507.91
2019-03-31T08:30:32.308Z,98515.08
2019-03-31T08:33:14.271Z,98508.52
2019-03-31T08:35:55.164Z,98510.28
2019-03-31T08:38:45.367Z,98513.44
2019-03-31T08:44:25.468Z,98512.97
2019-03-31T08:47:15.605Z,98507.02
2019-03-31T08:49:46.731Z,98513.91
2019-03-31T08:52:17.915Z,98517.23
2019-03-31T08:54:48.991Z,98516.73
2019-03-31T08:57:39.204Z,98521.26
2019-03-31T09:03:32.920Z,98515.06
2019-03-31T09:06:04.033Z,98516.38
2019-03-31T09:08:54.088Z,98521.69
2019-03-31T09:11:43.935Z,98511.70
2019-03-31T09:14:33.964Z,98509.36
2019-03-31T09:17:05.458Z,98512.05
2019-03-31T09:23:07.710Z,98512.20
2019-03-31T09:25:38.719Z,98516.40
2019-03-31T09:28:12.035Z,98512.17
2019-03-31T09:31:02.438Z,98515.48
2019-03-31T09:33:33.610Z,98509.63
2019-03-31T09:36:23.965Z,98513.56
2019-03-31T09:38:57.280Z,98511.72
2019-03-31T09:41:28.275Z,98510.89
2019-03-31T09:46:57.409Z,98507.50
2019-03-31T09:49:47.444Z,98504.54
2019-03-31T09:52:37.336Z,98495.53
2019-03-31T09:57:46.882Z,98489.02
2019-03-31T10:00:54.431Z,98484.18
2019-03-31T10:03:27.104Z,98484.56
2019-03-31T10:06:09.901Z,98481.55
2019-03-31T10:08:31.407Z,98471.92
2019-03-31T10:11:21.119Z,98471.33
2019-03-31T10:14:11.056Z,98478.34
2019-03-31T10:17:11.949Z,98468.48
2019-03-31T10:19:43.944Z,98468.94
2019-03-31T10:22:33.676Z,98471.27
2019-03-31T10:25:23.688Z,98477.98
2019-03-31T10:27:54.982Z,98469.59
2019-03-31T10:30:53.880Z,98462.42
2019-03-31T10:33:43.617Z,98458.05
2019-03-31T10:36:14.675Z,98463.47
2019-03-31T10:39:25.009Z,98456.06
2019-03-31T10:42:15.246Z,98450.92
2019-03-31T10:44:46.486Z,98445.63
2019-03-31T10:47:19.828Z,98444.27
2019-03-31T10:49:51.080Z,98443.95
2019-03-31T10:52:22.245Z,98451.00
2019-03-31T10:55:35.013Z,98447.45
2019-03-31T10:58:16.626Z,98441.06
2019-03-31T11:01:04.053Z,98445.77
2019-03-31T11:03:35.298Z,98437.56
2019-03-31T11:06:06.331Z,98444.27
2019-03-31T11:08:37.411Z,98439.95
2019-03-31T11:11:27.748Z,98434.48
2019-03-31T11:14:17.463Z,98440.34
2019-03-31T11:16:48.937Z,98433.64
2019-03-31T11:19:24.212Z,98427.80
2019-03-31T11:24:55.864Z,98423.70
2019-03-31T11:28:04.275Z,98424.31
2019-03-31T11:30:45.693Z,98418.02
2019-03-31T11:33:16.837Z,98417.88
2019-03-31T11:35:47.840Z,98425.75
2019-03-31T11:38:19.208Z,98418.27
2019-03-31T11:41:08.952Z,98412.88
2019-03-31T11:43:42.501Z,98413.27
2019-03-31T11:46:14.604Z,98411.89
2019-03-31T11:49:04.600Z,98406.95
2019-03-31T11:51:54.356Z,98400.45
2019-03-31T11:55:04.662Z,98400.48
2019-03-31T11:57:35.912Z,98398.33
2019-03-31T12:00:29.571Z,98396.79
2019-03-31T12:03:07.101Z,98392.73
2019-03-31T12:05:38.455Z,98396.36
2019-03-31T12:08:09.583Z,98397.16
2019-03-31T12:10:59.366Z,98385.53
2019-03-31T12:13:49.228Z,98384.50
2019-03-31T12:17:00.542Z,98383.44
2019-03-31T12:19:31.627Z,98317.33
2019-03-31T12:22:21.345Z,98375.80
2019-03-31T12:24:52.387Z,98368.26
2019-03-31T12:27:23.940Z,98368.19
2019-03-31T12:30:13.753Z,98368.60
2019-03-31T12:32:45.033Z,98371.45
2019-03-31T12:35:18.534Z,98368.83
2019-03-31T12:38:08.278Z,98363.72
2019-03-31T12:40:40.880Z,98374.39
2019-03-31T12:43:30.606Z,98366.06
2019-03-31T12:46:01.694Z,98358.79
2019-03-31T12:48:32.750Z,98362.37
2019-03-31T12:51:22.499Z,98362.42
2019-03-31T12:54:12.177Z,98354.61
2019-03-31T12:56:43.216Z,98361.96
2019-03-31T12:59:34.548Z,98360.37
2019-03-31T13:02:05.890Z,98354.45
2019-03-31T13:04:37.313Z,98343.23
2019-03-31T13:07:08.834Z,98341.84
2019-03-31T13:09:41.279Z,98341.75
2019-03-31T13:12:30.943Z,98328.03
2019-03-31T13:18:02.975Z,98345.63
2019-03-31T13:20:36.637Z,98335.84
2019-03-31T13:23:08.631Z,98342.75
2019-03-31T13:28:49.087Z,98328.16
2019-03-31T13:31:20.564Z,98323.05
2019-03-31T13:33:52.043Z,98324.82
2019-03-31T13:36:42.214Z,98316.53
2019-03-31T13:39:13.299Z,98313.19
2019-03-31T13:41:47.159Z,98314.26
2019-03-31T13:44:36.156Z,98313.03
2019-03-31T13:47:26.009Z,98310.70
2019-03-31T13:49:57.071Z,98304.67
2019-03-31T13:55:19.949Z,98297.96
2019-03-31T13:57:52.627Z,98294.33
2019-03-31T14:00:43.137Z,98300.39
2019-03-31T14:03:41.021Z,98300.38
2019-03-31T14:06:14.235Z,98297.89
2019-03-31T14:09:06.248Z,98304.28
2019-03-31T14:11:38.311Z,98302.22
2019-03-31T14:14:11.603Z,98302.05
2019-03-31T14:16:42.649Z,98297.22
2019-03-31T14:19:32.766Z,98286.36
2019-03-31T14:22:03.837Z,98296.84
2019-03-31T14:24:34.995Z,98292.36
2019-03-31T14:27:24.661Z,98290.48
2019-03-31T14:29:55.753Z,98290.67
2019-03-31T14:32:26.996Z,98293.32
2019-03-31T14:35:16.845Z,98291.30
2019-03-31T14:38:06.673Z,98281.52
2019-03-31T14:40:37.991Z,98284.68
2019-03-31T14:43:17.996Z,98281.50
2019-03-31T14:46:10.444Z,98283.84
2019-03-31T14:48:41.500Z,98273.15
2019-03-31T14:51:31.751Z,98267.95
2019-03-31T14:54:21.539Z,98169.77
2019-03-31T14:57:11.186Z,98275.31
2019-03-31T14:59:42.215Z,98270.74
2019-03-31T15:02:32.414Z,98275.31
2019-03-31T15:05:03.411Z,98275.23
2019-03-31T15:07:53.555Z,98270.98
2019-03-31T15:10:24.589Z,98277.28
2019-03-31T15:12:55.804Z,98275.16
2019-03-31T15:15:46.245Z,98273.73
2019-03-31T15:18:36.752Z,98264.13
2019-03-31T15:21:09.266Z,98255.63
2019-03-31T15:23:55.698Z,98261.87
2019-03-31T15:26:48.410Z,98264.56
2019-03-31T15:29:19.629Z,98262.06
2019-03-31T15:32:10.561Z,98262.92
2019-03-31T15:35:00.778Z,98257.94
2019-03-31T15:37:31.918Z,98156.37
2019-03-31T15:40:03.227Z,98256.13
2019-03-31T15:42:37.559Z,98261.21
2019-03-31T15:45:09.966Z,98255.77
2019-03-31T15:48:00.263Z,98249.52
2019-03-31T15:50:31.505Z,98256.75
2019-03-31T15:53:03.030Z,98252.80
2019-03-31T15:55:34.999Z,98257.84
2019-03-31T15:58:07.014Z,98255.41
2019-03-31T16:00:57.042Z,98256.75
2019-03-31T16:03:28.227Z,98258.65
2019-03-31T16:06:18.287Z,98251.19
2019-03-31T16:09:22.311Z,98254.15
2019-03-31T16:12:00.228Z,98253.84
2019-03-31T16:14:31.175Z,98244.53
2019-03-31T16:17:24.271Z,98254.78
2019-03-31T16:20:00.365Z,98243.91
2019-03-31T16:22:47.896Z,98238.55
2019-03-31T16:25:14.572Z,98240.05
2019-03-31T16:27:46.175Z,98239.07
2019-03-31T16:30:19.665Z,98227.67
2019-03-31T16:33:09.123Z,98221.64
2019-03-31T16:35:39.902Z,98220.56
2019-03-31T16:38:35.659Z,98227.19
2019-03-31T16:41:06.197Z,98220.61
2019-03-31T16:46:50.009Z,98220.25
2019-03-31T16:49:21.008Z,98225.58
2019-03-31T16:52:10.547Z,98217.22
2019-03-31T16:54:41.793Z,98224.44
2019-03-31T16:57:31.739Z,98217.39
2019-03-31T17:00:03.546Z,98222.39
2019-03-31T17:05:42.675Z,98225.48
2019-03-31T17:08:32.936Z,98223.97
2019-03-31T17:11:27.915Z,98227.88
2019-03-31T17:14:17.620Z,98226.38
2019-03-31T17:17:07.056Z,98227.42
2019-03-31T17:19:56.591Z,98223.44
2019-03-31T17:22:27.527Z,98224.84
2019-03-31T17:24:58.012Z,98220.17
2019-03-31T17:27:47.417Z,98225.86
2019-03-31T17:30:18.638Z,98218.83
2019-03-31T17:33:08.061Z,98221.36
2019-03-31T17:35:38.622Z,98218.78
2019-03-31T17:38:09.493Z,98223.23
2019-03-31T17:40:41.259Z,98222.30
2019-03-31T17:43:23.832Z,98224.38
2019-03-31T17:46:05.444Z,98115.11
2019-03-31T17:48:37.272Z,98229.27
2019-03-31T17:54:19.852Z,98228.00
2019-03-31T17:57:22.511Z,98229.56
2019-03-31T17:59:41.657Z,98234.90
2019-03-31T18:02:12.984Z,98235.54
2019-03-31T18:05:02.661Z,98235.39
2019-03-31T18:07:52.718Z,98233.56
2019-03-31T18:10:42.214Z,98237.53
2019-03-31T18:13:12.998Z,98245.12
2019-03-31T18:15:57.421Z,98242.88
2019-03-31T18:21:22.435Z,98250.79
2019-03-31T18:29:23.272Z,98255.22
2019-03-31T18:32:12.757Z,98259.94
2019-03-31T18:35:02.771Z,98263.30
2019-03-31T18:37:33.981Z,98264.48
2019-03-31T18:40:07.243Z,98270.59
2019-03-31T18:42:56.719Z,98277.55
2019-03-31T18:45:47.389Z,98274.41
2019-03-31T18:48:38.669Z,98282.31
2019-03-31T18:51:28.237Z,98284.27
2019-03-31T18:54:36.626Z,98283.02
2019-03-31T18:57:46.294Z,98288.26
2019-03-31T19:00:36.366Z,98300.80
2019-03-31T19:03:27.789Z,98296.47
2019-03-31T19:06:36.141Z,98296.97
2019-03-31T19:09:35.025Z,98303.78
2019-03-31T19:12:24.846Z,98182.62
2019-03-31T19:15:15.097Z,98311.63
2019-03-31T19:18:07.982Z,98316.27
2019-03-31T19:21:10.536Z,98317.97
2019-03-31T19:26:48.548Z,98322.88
2019-03-31T19:29:53.700Z,98324.61
2019-03-31T19:32:58.320Z,98298.30
2019-03-31T19:35:51.516Z,98318.86
2019-03-31T19:38:29.840Z,98327.67
2019-03-31T19:41:38.148Z,98332.33
2019-03-31T19:44:33.435Z,98336.88
2019-03-31T19:47:12.672Z,98337.42
2019-03-31T19:50:02.315Z,98334.20
2019-03-31T19:53:15.133Z,98341.88
2019-03-31T19:56:24.151Z,98342.80
2019-03-31T19:59:16.274Z,98341.31
2019-03-31T20:02:07.499Z,98346.15
2019-03-31T20:04:57.445Z,98349.88
2019-03-31T20:08:06.044Z,98352.80
2019-03-31T20:11:09.418Z,98356.11
2019-03-31T20:14:18.132Z,98349.23
2019-03-31T20:17:22.515Z,98348.69
2019-03-31T20:26:09.682Z,98369.74
2019-03-31T20:31:52.579Z,98375.39
2019-03-31T20:34:35.985Z,98371.33
2019-03-31T20:37:26.793Z,98379.01
2019-03-31T20:40:35.326Z,98376.23
2019-03-31T20:43:24.791Z,98373.64
2019-03-31T20:45:56.507Z,98375.45
2019-03-31T20:48:27.077Z,98370.31
2019-03-31T20:50:58.275Z,98374.31
2019-03-31T20:53:28.874Z,98383.96
2019-03-31T20:56:01.560Z,98383.20
2019-03-31T20:58:51.403Z,98380.96
2019-03-31T21:01:40.832Z,98383.31
2019-03-31T21:04:30.556Z,98379.65
2019-03-31T21:07:20.001Z,98384.78
2019-03-31T21:09:51.495Z,98389.75
2019-03-31T21:12:33.353Z,98391.98
2019-03-31T21:15:14.966Z,98393.89
2019-03-31T21:17:55.875Z,98401.17
2019-03-31T21:20:41.153Z,98399.13
2019-03-31T21:23:20.498Z,98395.75
2019-03-31T21:26:14.511Z,98260.70
2019-03-31T21:28:47.031Z,98401.55
2019-03-31T21:31:39.299Z,98399.59
2019-03-31T21:37:25.507Z,98400.26
2019-03-31T21:40:15.483Z,98399.39
2019-03-31T21:42:46.659Z,98399.23
2019-03-31T21:45:18.294Z,98401.20
2019-03-31T21:50:28.141Z,98403.41
2019-03-31T21:52:59.890Z,98407.53
2019-03-31T21:55:50.075Z,98409.28
2019-03-31T21:58:40.949Z,98410.14
2019-03-31T22:01:16.017Z,98402.72
2019-03-31T22:07:08.627Z,98405.94
2019-03-31T22:12:53.715Z,98407.32
2019-03-31T22:15:43.410Z,98408.70
2019-03-31T22:18:53.055Z,98414.39
2019-03-31T22:21:45.763Z,98408.13
2019-03-31T22:24:35.826Z,98403.39
2019-03-31T22:27:06.873Z,98404.12
2019-03-31T22:29:56.790Z,98402.47
2019-03-31T22:32:38.959Z,98403.83
2019-03-31T22:35:20.653Z,98401.84
2019-03-31T22:41:10.545Z,98406.84
2019-03-31T22:44:00.684Z,98399.30
2019-03-31T22:46:54.540Z,98363.93
2019-03-31T22:49:26.628Z,98399.80
2019-03-31T22:52:00.895Z,98393.34
2019-03-31T22:54:52.064Z,98398.34
2019-03-31T22:57:42.319Z,98390.53
2019-03-31T23:00:32.034Z,98265.00
2019-03-31T23:03:21.615Z,98387.45
2019-03-31T23:06:11.323Z,98395.86
2019-03-31T23:09:00.936Z,98394.63
2019-03-31T23:11:31.475Z,98404.95
2019-03-31T23:14:14.218Z,98392.74
2019-03-31T23:16:44.726Z,98395.03
2019-03-31T23:19:15.387Z,98394.73
2019-03-31T23:21:55.810Z,98395.19
2019-03-31T23:24:45.566Z,98398.94
2019-03-31T23:27:16.035Z,98397.64
2019-03-31T23:30:07.818Z,98397.50
2019-03-31T23:32:57.593Z,98397.60
2019-03-31T23:35:54.352Z,98402.06
2019-03-31T23:38:44.094Z,98398.53
2019-03-31T23:41:14.689Z,98401.08
2019-03-31T23:44:04.950Z,98399.45
2019-03-31T23:46:35.597Z,98403.90
2019-03-31T23:49:25.398Z,98403.90
2019-03-31T23:52:15.333Z,98398.45
2019-03-31T23:55:08.586Z,98392.61
2019-03-31T23:57:40.241Z,98392.55
